createdAt,value
2023-05-22T00:01:20.137Z,83.3398
2023-05-22T00:02:22.415Z,83.4688
2023-05-22T00:03:23.580Z,83.7592
2023-05-22T00:04:25.561Z,83.9106
2023-05-22T00:05:27.620Z,84.1946
2023-05-22T00:19:44.210Z,86.1361
2023-05-22T00:20:45.413Z,86.5195
2023-05-22T00:21:47.657Z,86.9822
2023-05-22T00:22:48.903Z,87.6785
2023-05-22T00:23:50.509Z,88.4108
2023-05-22T00:24:51.736Z,88.9499
2023-05-22T00:25:52.660Z,89.3579
2023-05-22T00:26:54.574Z,89.7327
2023-05-22T00:28:07.665Z,90.0303
2023-05-22T00:30:28.721Z,91.1534
2023-05-22T00:31:31.555Z,91.2946
2023-05-22T00:32:32.416Z,91.4484
2023-05-22T00:39:42.846Z,92.9225
2023-05-22T00:40:44.611Z,92.9255
2023-05-22T00:50:31.845Z,93.2830
2023-05-22T00:51:36.505Z,92.9727
2023-05-22T00:58:42.158Z,90.5795
2023-05-22T00:59:44.313Z,89.8383
2023-05-22T01:00:44.909Z,89.4619
2023-05-22T01:01:47.070Z,89.4007
2023-05-22T01:09:25.235Z,88.2522
2023-05-22T01:10:25.970Z,88.6521
2023-05-22T01:11:27.741Z,88.4800
2023-05-22T01:12:29.117Z,88.4051
2023-05-22T01:13:30.333Z,88.5494
2023-05-22T01:19:07.895Z,87.9780
2023-05-22T01:20:08.907Z,88.1043
2023-05-22T01:21:09.290Z,88.1146
2023-05-22T01:22:10.505Z,88.7827
2023-05-22T01:23:10.803Z,89.8838
2023-05-22T01:24:13.035Z,89.5214
2023-05-22T01:25:14.518Z,89.7037
2023-05-22T01:26:16.043Z,89.7953
2023-05-22T01:27:17.199Z,90.7436
2023-05-22T01:28:19.284Z,89.9234
2023-05-22T01:29:20.539Z,88.6775
2023-05-22T01:30:21.949Z,90.2802
2023-05-22T01:31:22.224Z,90.2625
2023-05-22T01:32:23.284Z,89.7755
2023-05-22T01:33:25.220Z,89.7863
2023-05-22T01:34:27.088Z,90.5718
2023-05-22T01:35:29.226Z,90.6847
2023-05-22T01:37:32.328Z,89.3442
2023-05-22T01:38:34.034Z,90.3438
2023-05-22T01:39:35.284Z,90.3220
2023-05-22T01:40:37.013Z,89.3634
2023-05-22T01:41:38.736Z,90.2483
2023-05-22T01:42:40.572Z,91.4387
2023-05-22T01:43:41.351Z,91.7159
2023-05-22T01:45:42.354Z,92.3210
2023-05-22T01:47:42.525Z,92.8144
2023-05-22T01:48:45.139Z,92.8743
2023-05-22T01:49:46.592Z,92.4514
2023-05-22T01:51:49.809Z,91.6785
2023-05-22T01:52:51.690Z,91.3809
2023-05-22T01:54:55.561Z,91.9122
2023-05-22T02:15:14.839Z,93.7689
2023-05-22T02:17:16.794Z,94.7398
2023-05-22T02:21:23.825Z,94.9353
2023-05-22T02:22:24.847Z,94.5544
2023-05-22T02:23:26.286Z,94.0387
2023-05-22T02:24:27.034Z,94.2829
2023-05-22T02:25:29.133Z,94.3156
2023-05-22T02:26:31.350Z,94.0872
2023-05-22T02:27:32.381Z,94.1855
2023-05-22T02:29:35.535Z,94.8549
2023-05-22T02:30:37.448Z,95.2849
2023-05-22T02:32:39.707Z,95.1649
2023-05-22T02:33:41.147Z,94.7602
2023-05-22T02:34:42.928Z,94.3638
2023-05-22T02:37:47.447Z,94.4404
2023-05-22T02:39:49.938Z,94.2088
2023-05-22T02:41:51.989Z,94.0751
2023-05-22T02:43:53.976Z,95.1973
2023-05-22T02:44:55.623Z,95.1781
2023-05-22T02:45:57.691Z,94.5520
2023-05-22T02:47:00.435Z,94.6972
2023-05-22T02:48:00.582Z,94.3706
2023-05-22T02:49:01.888Z,94.1973
2023-05-22T02:50:02.336Z,94.4210
2023-05-22T02:51:02.429Z,94.3825
2023-05-22T02:52:05.830Z,94.7194
2023-05-22T02:53:05.847Z,92.9998
2023-05-22T02:54:07.462Z,92.6215
2023-05-22T02:55:09.151Z,92.8862
2023-05-22T02:56:09.322Z,92.8141
2023-05-22T02:57:10.463Z,92.6067
2023-05-22T02:58:25.802Z,92.7359
2023-05-22T03:00:44.295Z,93.5851
2023-05-22T03:01:46.432Z,93.7654
2023-05-22T03:02:46.261Z,94.4944
2023-05-22T03:04:50.473Z,94.6469
2023-05-22T03:05:51.166Z,94.4357
2023-05-22T03:06:52.473Z,93.2384
2023-05-22T03:07:53.855Z,93.0396
2023-05-22T03:11:55.490Z,94.6195
2023-05-22T03:12:55.568Z,94.7795
2023-05-22T03:13:57.762Z,94.8037
2023-05-22T03:14:59.213Z,94.9519
2023-05-22T03:16:00.710Z,95.0594
2023-05-22T03:18:03.881Z,95.6664
2023-05-22T03:19:05.649Z,96.2710
2023-05-22T03:25:11.072Z,96.1386
2023-05-22T03:26:12.983Z,96.3013
2023-05-22T03:27:14.099Z,95.9885
2023-05-22T03:28:16.284Z,95.7877
2023-05-22T03:29:16.609Z,96.0459
2023-05-22T03:30:16.824Z,96.1889
2023-05-22T03:32:20.596Z,96.4268
2023-05-22T03:33:21.264Z,96.3489
2023-05-22T03:34:21.448Z,96.3339
2023-05-22T03:37:24.066Z,96.6204
2023-05-22T03:38:26.002Z,96.8847
2023-05-22T03:39:27.142Z,96.6678
2023-05-22T03:40:28.531Z,96.5128
2023-05-22T03:41:28.961Z,96.2747
2023-05-22T03:42:30.637Z,96.1521
2023-05-22T03:44:32.395Z,96.1533
2023-05-22T03:45:38.990Z,96.2253
2023-05-22T03:52:41.529Z,96.7726
2023-05-22T03:53:42.955Z,96.7750
2023-05-22T03:54:44.613Z,96.5836
2023-05-22T03:55:46.552Z,96.3493
2023-05-22T03:56:49.129Z,96.2486
2023-05-22T04:05:58.460Z,92.2901
2023-05-22T04:10:02.488Z,94.4038
2023-05-22T04:11:02.831Z,94.9401
2023-05-22T04:12:04.069Z,95.3551
2023-05-22T04:13:04.542Z,95.6587
2023-05-22T04:14:07.854Z,95.6736
2023-05-22T04:15:09.263Z,95.7985
2023-05-22T04:16:10.033Z,95.6117
2023-05-22T04:17:12.286Z,95.4370
2023-05-22T04:18:12.728Z,95.3385
2023-05-22T04:19:13.080Z,95.1752
2023-05-22T04:20:15.656Z,95.3435
2023-05-22T04:21:16.630Z,94.8817
2023-05-22T04:22:18.207Z,94.1340
2023-05-22T04:23:20.538Z,93.6513
2023-05-22T04:24:21.393Z,93.4899
2023-05-22T04:25:24.135Z,93.5501
2023-05-22T04:26:24.002Z,93.4081
2023-05-22T04:41:44.654Z,93.1425
2023-05-22T04:42:46.474Z,93.2482
2023-05-22T04:43:48.450Z,93.7182
2023-05-22T04:44:49.563Z,93.9097
2023-05-22T04:45:51.982Z,94.2378
2023-05-22T04:56:04.229Z,94.4347
2023-05-22T04:57:06.397Z,94.4198
2023-05-22T05:03:14.908Z,94.1608
2023-05-22T05:07:19.280Z,93.2594
2023-05-22T05:08:21.285Z,92.8415
2023-05-22T05:24:40.337Z,83.7332
2023-05-22T05:25:42.226Z,83.3188
2023-05-22T05:26:43.385Z,83.0624
2023-05-22T05:27:44.683Z,82.9126
2023-05-22T05:28:46.415Z,81.7474
2023-05-22T05:29:46.876Z,83.3340
2023-05-22T05:31:50.257Z,82.9435
2023-05-22T05:32:50.179Z,83.3698
2023-05-22T05:42:01.172Z,77.8311
2023-05-22T05:43:02.120Z,78.6034
2023-05-22T05:51:09.566Z,73.8444
2023-05-22T05:52:11.082Z,74.1261
2023-05-22T06:01:22.635Z,72.0044
2023-05-22T06:02:24.326Z,72.7985
2023-05-22T06:03:28.488Z,73.9806
2023-05-22T06:11:35.066Z,73.0875
2023-05-22T06:12:36.493Z,74.0639
2023-05-22T06:13:38.214Z,75.0296
2023-05-22T06:14:39.746Z,73.2822
2023-05-22T06:15:41.683Z,74.5831
2023-05-22T06:16:44.627Z,73.6929
2023-05-22T06:17:44.616Z,71.4562
2023-05-22T06:18:44.725Z,72.2765
2023-05-22T06:19:46.253Z,72.8468
2023-05-22T06:20:47.469Z,72.8032
2023-05-22T06:21:53.000Z,73.1376
2023-05-22T06:22:50.897Z,73.0731
2023-05-22T06:23:52.857Z,73.4440
2023-05-22T06:24:54.096Z,71.4502
2023-05-22T06:26:57.498Z,70.6669
2023-05-22T06:27:59.712Z,72.5002
2023-05-22T06:29:03.226Z,70.8261
2023-05-22T06:36:08.588Z,70.6605
2023-05-22T06:37:10.584Z,71.1657
2023-05-22T06:38:11.810Z,71.2508
2023-05-22T06:39:11.986Z,71.7071
2023-05-22T06:44:46.891Z,70.1107
2023-05-22T06:45:49.146Z,71.3980
2023-05-22T06:52:55.260Z,69.6335
2023-05-22T07:05:09.571Z,70.0444
2023-05-22T07:06:11.976Z,71.0372
2023-05-22T07:07:14.400Z,69.4176
2023-05-22T07:31:45.546Z,66.0926
2023-05-22T07:32:45.655Z,65.2822
2023-05-22T07:33:46.707Z,66.5010
2023-05-22T07:34:48.287Z,65.7342
2023-05-22T07:35:49.668Z,65.5615
2023-05-22T07:36:50.697Z,65.3193
2023-05-22T07:39:54.491Z,67.2028
2023-05-22T07:40:56.576Z,65.7057
2023-05-22T07:42:01.536Z,66.4426
2023-05-22T07:48:03.157Z,64.3913
2023-05-22T07:49:03.869Z,66.0336
2023-05-22T07:50:04.656Z,64.5247
2023-05-22T07:51:06.096Z,65.1272
2023-05-22T07:52:07.886Z,65.4545
2023-05-22T07:53:08.502Z,64.3871
2023-05-22T07:54:09.890Z,64.8861
2023-05-22T07:55:09.893Z,65.4384
2023-05-22T07:56:11.804Z,66.9237
2023-05-22T07:57:13.887Z,65.9792
2023-05-22T07:58:16.783Z,65.8562
2023-05-22T07:59:17.774Z,65.5977
2023-05-22T08:00:19.913Z,63.9601
2023-05-22T08:01:20.496Z,63.2979
2023-05-22T08:04:24.371Z,62.6386
2023-05-22T08:05:25.170Z,61.6961
2023-05-22T08:06:25.570Z,61.4431
2023-05-22T08:07:27.567Z,62.5895
2023-05-22T08:08:32.250Z,62.5371
2023-05-22T08:29:30.828Z,59.4078
2023-05-22T08:30:31.084Z,58.7294
2023-05-22T08:31:32.635Z,59.1597
2023-05-22T08:32:32.894Z,60.0538
2023-05-22T08:33:34.291Z,59.2851
2023-05-22T08:34:35.662Z,58.7867
2023-05-22T08:35:37.387Z,57.8152
2023-05-22T08:36:38.957Z,58.5375
2023-05-22T08:37:40.283Z,57.7759
2023-05-22T08:38:42.041Z,58.0488
2023-05-22T08:39:43.546Z,56.5056
2023-05-22T08:40:47.082Z,58.3153
2023-05-22T08:42:48.575Z,58.2771
2023-05-22T08:43:50.448Z,58.4784
2023-05-22T08:44:51.959Z,56.7984
2023-05-22T08:45:53.526Z,57.7064
2023-05-22T08:46:55.233Z,56.3402
2023-05-22T08:47:57.226Z,56.0953
2023-05-22T08:48:59.258Z,57.7353
2023-05-22T08:50:00.034Z,56.7268
2023-05-22T08:51:00.329Z,57.5783
2023-05-22T08:52:01.777Z,56.5046
2023-05-22T08:53:02.906Z,56.5276
2023-05-22T08:54:03.106Z,54.9500
2023-05-22T08:55:04.574Z,54.4645
2023-05-22T08:56:06.429Z,54.3732
2023-05-22T08:57:08.018Z,55.7743
2023-05-22T08:58:08.669Z,55.7068
2023-05-22T08:59:10.004Z,54.5359
2023-05-22T09:00:10.436Z,55.0040
2023-05-22T09:01:12.334Z,53.0344
2023-05-22T09:02:14.154Z,54.2004
2023-05-22T09:03:15.670Z,54.5823
2023-05-22T09:04:17.558Z,55.5284
2023-05-22T09:05:19.403Z,56.0705
2023-05-22T09:06:21.227Z,56.6622
2023-05-22T09:07:23.020Z,58.1185
2023-05-22T09:08:25.084Z,54.9277
2023-05-22T09:09:26.616Z,56.4088
2023-05-22T09:10:27.077Z,58.6112
2023-05-22T09:11:28.892Z,57.9184
2023-05-22T09:12:30.229Z,57.3433
2023-05-22T09:13:32.077Z,55.2595
2023-05-22T09:14:33.513Z,53.5908
2023-05-22T09:15:35.091Z,53.5828
2023-05-22T09:16:35.824Z,56.5062
2023-05-22T09:20:42.356Z,53.7163
2023-05-22T09:21:42.870Z,56.5274
2023-05-22T09:22:43.733Z,56.0457
2023-05-22T09:23:45.551Z,56.7985
2023-05-22T09:24:47.274Z,57.6094
2023-05-22T09:25:49.244Z,54.8600
2023-05-22T09:26:51.280Z,54.9094
2023-05-22T09:27:52.876Z,56.1882
2023-05-22T09:28:54.278Z,53.9895
2023-05-22T09:30:56.585Z,54.3882
2023-05-22T09:31:56.918Z,54.1165
2023-05-22T09:32:58.937Z,55.2490
2023-05-22T09:33:59.332Z,52.0669
2023-05-22T09:35:01.124Z,51.4213
2023-05-22T09:36:02.129Z,52.5805
2023-05-22T09:37:03.998Z,52.5382
2023-05-22T09:38:05.025Z,53.6875
2023-05-22T09:42:11.409Z,54.1869
2023-05-22T09:43:11.658Z,53.9854
2023-05-22T09:44:12.781Z,52.6829
2023-05-22T09:45:14.139Z,51.2422
2023-05-22T09:46:15.182Z,53.1325
2023-05-22T09:47:17.207Z,53.1740
2023-05-22T09:48:17.392Z,56.0168
2023-05-22T09:49:19.550Z,53.5684
2023-05-22T09:52:23.725Z,53.8037
2023-05-22T09:54:27.302Z,50.3998
2023-05-22T09:55:27.488Z,54.0665
2023-05-22T09:57:29.774Z,53.5619
2023-05-22T09:58:31.492Z,52.6457
2023-05-22T09:59:33.033Z,53.6653
2023-05-22T10:00:34.726Z,53.5911
2023-05-22T10:01:35.264Z,51.8802
2023-05-22T10:02:35.951Z,51.5618
2023-05-22T10:03:37.702Z,49.0057
2023-05-22T10:04:39.775Z,50.9878
2023-05-22T10:05:40.082Z,52.1359
2023-05-22T10:08:44.310Z,50.0367
2023-05-22T10:09:46.345Z,49.1939
2023-05-22T10:10:47.624Z,48.8769
2023-05-22T10:11:49.484Z,52.2011
2023-05-22T10:12:51.361Z,52.0975
2023-05-22T10:13:53.572Z,53.5935
2023-05-22T10:14:54.536Z,53.1181
2023-05-22T10:15:56.426Z,53.4677
2023-05-22T10:16:58.095Z,53.8944
2023-05-22T10:17:59.716Z,53.3292
2023-05-22T10:20:01.173Z,52.6967
2023-05-22T10:21:02.399Z,50.3349
2023-05-22T10:22:02.654Z,50.7047
2023-05-22T10:23:04.314Z,49.3611
2023-05-22T10:24:05.137Z,48.4219
2023-05-22T10:25:10.850Z,48.1097
2023-05-22T10:37:22.778Z,50.1148
2023-05-22T10:38:24.374Z,49.1624
2023-05-22T10:39:24.840Z,49.3043
2023-05-22T10:40:27.450Z,47.4203
2023-05-22T10:41:28.858Z,47.2584
2023-05-22T10:42:30.572Z,47.9910
2023-05-22T10:43:30.639Z,49.3631
2023-05-22T10:44:31.094Z,49.2238
2023-05-22T10:45:32.846Z,48.5162
2023-05-22T10:46:32.830Z,49.3805
2023-05-22T10:47:33.366Z,48.4568
2023-05-22T10:48:34.218Z,47.9653
2023-05-22T10:50:37.113Z,49.6715
2023-05-22T10:51:38.734Z,49.0744
2023-05-22T10:52:40.138Z,47.3177
2023-05-22T10:53:41.883Z,48.1474
2023-05-22T10:56:46.692Z,46.9674
2023-05-22T10:57:48.345Z,50.5010
2023-05-22T10:58:50.163Z,48.7910
2023-05-22T10:59:51.681Z,47.2924
2023-05-22T11:00:53.345Z,45.7380
2023-05-22T11:01:54.300Z,48.2463
2023-05-22T11:12:04.777Z,51.4391
2023-05-22T11:13:05.734Z,50.4023
2023-05-22T11:14:07.655Z,51.7187
2023-05-22T11:15:08.535Z,48.7578
2023-05-22T11:16:09.912Z,46.0502
2023-05-22T11:17:12.860Z,47.1763
2023-05-22T11:21:13.845Z,49.9262
2023-05-22T11:37:32.515Z,48.7326
2023-05-22T11:38:34.176Z,48.4949
2023-05-22T11:39:34.670Z,48.4761
2023-05-22T11:41:36.045Z,48.2636
2023-05-22T11:42:36.385Z,48.6043
2023-05-22T11:43:37.468Z,48.1146
2023-05-22T11:44:39.551Z,48.4440
2023-05-22T11:45:40.592Z,46.6658
2023-05-22T11:46:41.971Z,47.9860
2023-05-22T11:47:43.810Z,46.3415
2023-05-22T11:48:45.837Z,46.1068
2023-05-22T11:49:46.146Z,44.8802
2023-05-22T11:50:48.293Z,45.0152
2023-05-22T11:51:48.888Z,44.6083
2023-05-22T11:52:49.813Z,45.9291
2023-05-22T11:54:51.912Z,44.1874
2023-05-22T11:55:53.032Z,46.9916
2023-05-22T11:56:54.725Z,45.5138
2023-05-22T11:57:56.228Z,48.0351
2023-05-22T11:58:56.428Z,46.3145
2023-05-22T11:59:57.204Z,47.4187
2023-05-22T12:00:57.269Z,46.6232
2023-05-22T12:01:58.289Z,47.7783
2023-05-22T12:03:00.080Z,47.5544
2023-05-22T12:04:00.454Z,47.4658
2023-05-22T12:05:01.554Z,46.9701
2023-05-22T12:06:03.467Z,46.6138
2023-05-22T12:07:04.432Z,47.6304
2023-05-22T12:08:05.041Z,45.1005
2023-05-22T12:11:10.580Z,45.2606
2023-05-22T12:12:11.202Z,43.2418
2023-05-22T12:13:11.241Z,43.7199
2023-05-22T12:15:13.934Z,44.3107
2023-05-22T12:16:14.584Z,47.0008
2023-05-22T12:18:15.068Z,45.3864
2023-05-22T12:19:16.329Z,45.3097
2023-05-22T12:20:18.215Z,42.7170
2023-05-22T12:21:18.794Z,42.2749
2023-05-22T12:22:22.586Z,44.2578
2023-05-22T12:23:20.700Z,40.7153
2023-05-22T12:24:21.542Z,45.0395
2023-05-22T12:25:21.565Z,43.5568
2023-05-22T12:26:23.735Z,44.4890
2023-05-22T12:27:24.898Z,40.7060
2023-05-22T12:28:26.906Z,42.3326
2023-05-22T12:29:28.814Z,42.0432
2023-05-22T12:30:30.719Z,42.1101
2023-05-22T12:31:32.820Z,41.9428
2023-05-22T12:32:33.066Z,41.9588
2023-05-22T12:33:35.088Z,41.7929
2023-05-22T12:34:36.691Z,43.0211
2023-05-22T12:35:38.295Z,42.8213
2023-05-22T12:36:38.538Z,42.3821
2023-05-22T12:37:40.643Z,42.5450
2023-05-22T12:38:41.172Z,43.4794
2023-05-22T12:39:42.142Z,44.9234
2023-05-22T12:40:43.909Z,44.6802
2023-05-22T12:41:44.500Z,41.7323
2023-05-22T12:42:45.570Z,38.9029
2023-05-22T12:47:53.692Z,42.7351
2023-05-22T12:48:55.442Z,44.3486
2023-05-22T12:49:56.815Z,44.0560
2023-05-22T12:50:57.263Z,46.7874
2023-05-22T12:51:57.920Z,46.4081
2023-05-22T12:52:58.053Z,47.4311
2023-05-22T12:53:59.186Z,48.1177
2023-05-22T12:55:00.590Z,43.9509
2023-05-22T12:56:00.908Z,44.9903
2023-05-22T12:57:02.944Z,40.4655
2023-05-22T12:58:02.977Z,40.9765
2023-05-22T13:00:05.312Z,40.8540
2023-05-22T13:01:06.778Z,41.1699
2023-05-22T13:02:08.184Z,42.6245
2023-05-22T13:03:09.897Z,40.7102
2023-05-22T13:04:11.275Z,40.4016
2023-05-22T13:05:11.803Z,40.0276
2023-05-22T13:06:13.380Z,40.9272
2023-05-22T13:07:14.397Z,42.3177
2023-05-22T13:08:14.601Z,40.1422
2023-05-22T13:09:15.081Z,41.9330
2023-05-22T13:10:16.408Z,41.1770
2023-05-22T13:11:17.576Z,39.4939
2023-05-22T13:12:18.031Z,41.3986
2023-05-22T13:13:19.002Z,40.0563
2023-05-22T13:14:20.761Z,41.4627
2023-05-22T13:15:22.356Z,38.9733
2023-05-22T13:16:23.129Z,41.1489
2023-05-22T13:18:25.340Z,40.8368
2023-05-22T13:19:27.574Z,37.5108
2023-05-22T13:20:28.141Z,40.0341
2023-05-22T13:21:29.545Z,38.2723
2023-05-22T13:22:30.149Z,38.3375
2023-05-22T13:23:30.196Z,41.5234
2023-05-22T13:24:30.518Z,40.9613
2023-05-22T13:25:31.194Z,42.3034
2023-05-22T13:26:31.408Z,40.4261
2023-05-22T13:27:34.314Z,38.4959
2023-05-22T13:34:41.230Z,41.6148
2023-05-22T13:37:45.673Z,41.9153
2023-05-22T13:40:48.976Z,42.1516
2023-05-22T13:51:57.949Z,48.1660
2023-05-22T13:52:58.078Z,46.6288
2023-05-22T13:53:58.403Z,41.9949
2023-05-22T13:54:59.928Z,40.4024
2023-05-22T13:56:01.436Z,40.3378
2023-05-22T14:03:09.553Z,37.7157
2023-05-22T14:05:10.201Z,42.8377
2023-05-22T14:06:13.811Z,43.8304
2023-05-22T14:07:13.861Z,43.3524
2023-05-22T14:08:15.708Z,39.2552
2023-05-22T14:09:17.248Z,39.3583
2023-05-22T14:11:20.449Z,45.2780
2023-05-22T14:12:21.166Z,43.8477
2023-05-22T14:13:22.635Z,45.2786
2023-05-22T14:15:26.742Z,47.8206
2023-05-22T14:16:28.109Z,48.7917
2023-05-22T14:17:29.402Z,44.8226
2023-05-22T14:18:30.802Z,44.6465
2023-05-22T14:19:33.395Z,43.7602
2023-05-22T14:20:33.553Z,41.2329
2023-05-22T14:21:35.681Z,42.4618
2023-05-22T14:22:55.895Z,39.8734
2023-05-22T14:26:08.789Z,39.3776
2023-05-22T14:27:11.095Z,42.7761
2023-05-22T14:28:10.976Z,44.5755
2023-05-22T14:29:10.970Z,44.4920
2023-05-22T14:30:12.989Z,44.0724
2023-05-22T14:31:14.331Z,44.0634
2023-05-22T14:32:16.389Z,46.0341
2023-05-22T14:33:17.950Z,45.5150
2023-05-22T14:34:19.684Z,44.3170
2023-05-22T14:35:21.357Z,44.9982
2023-05-22T14:36:21.647Z,43.2893
2023-05-22T14:37:23.155Z,41.4909
2023-05-22T14:38:23.689Z,42.5241
2023-05-22T14:39:25.573Z,41.8008
2023-05-22T14:40:27.143Z,38.8838
2023-05-22T14:41:27.401Z,39.9047
2023-05-22T14:42:28.901Z,38.3605
2023-05-22T14:43:30.207Z,39.5480
2023-05-22T14:44:31.720Z,41.8096
2023-05-22T14:45:33.248Z,39.0790
2023-05-22T14:46:35.091Z,39.6572
2023-05-22T14:47:36.321Z,40.5168
2023-05-22T14:48:37.247Z,40.1017
2023-05-22T14:49:37.973Z,36.6286
2023-05-22T14:50:39.274Z,37.1681
2023-05-22T14:51:40.730Z,38.6067
2023-05-22T14:52:41.152Z,37.6290
2023-05-22T14:53:42.744Z,37.0179
2023-05-22T14:54:44.192Z,36.8927
2023-05-22T14:55:45.536Z,37.8702
2023-05-22T14:56:47.363Z,36.2585
2023-05-22T14:57:48.730Z,41.2516
2023-05-22T14:58:49.695Z,41.9123
2023-05-22T14:59:50.959Z,37.2134
2023-05-22T15:00:52.280Z,37.7512
2023-05-22T15:01:53.927Z,39.6559
2023-05-22T15:02:55.676Z,41.0234
2023-05-22T15:03:57.013Z,40.3845
2023-05-22T15:04:58.785Z,38.9900
2023-05-22T15:05:59.186Z,37.5989
2023-05-22T15:08:02.261Z,37.8266
2023-05-22T15:09:03.872Z,37.1742
2023-05-22T15:10:04.491Z,35.0312
2023-05-22T15:11:05.736Z,35.7176
2023-05-22T15:12:08.467Z,35.5630
2023-05-22T15:14:09.462Z,37.0883
2023-05-22T15:17:13.292Z,37.1733
2023-05-22T15:24:21.361Z,44.7844
2023-05-22T15:25:22.655Z,44.0407
2023-05-22T15:26:23.467Z,45.9408
2023-05-22T15:27:24.820Z,45.8268
2023-05-22T15:30:27.717Z,46.9043
2023-05-22T15:31:29.657Z,46.6963
2023-05-22T15:32:31.328Z,46.6173
2023-05-22T15:33:33.493Z,48.3150
2023-05-22T15:34:35.274Z,46.3882
2023-05-22T15:35:36.625Z,46.3991
2023-05-22T15:36:36.784Z,47.0616
2023-05-22T15:37:37.275Z,46.6531
2023-05-22T15:38:38.824Z,47.1900
2023-05-22T15:39:40.251Z,48.0793
2023-05-22T15:40:42.358Z,47.6024
2023-05-22T15:42:02.413Z,49.2735
2023-05-22T16:11:57.016Z,47.1170
2023-05-22T16:12:58.497Z,43.1249
2023-05-22T16:14:00.636Z,43.8886
2023-05-22T16:20:09.969Z,43.5845
2023-05-22T16:21:11.594Z,39.8761
2023-05-22T16:22:12.674Z,40.7554
2023-05-22T16:23:14.726Z,40.1472
2023-05-22T16:24:16.638Z,37.5887
2023-05-22T16:25:18.560Z,39.9901
2023-05-22T16:26:18.632Z,38.8137
2023-05-22T16:27:20.441Z,40.5454
2023-05-22T16:28:22.268Z,40.2288
2023-05-22T16:29:24.297Z,39.2285
2023-05-22T16:30:26.447Z,41.0261
2023-05-22T16:31:26.607Z,38.0629
2023-05-22T16:32:28.631Z,38.3435
2023-05-22T16:33:28.566Z,40.5084
2023-05-22T16:34:30.703Z,39.1871
2023-05-22T16:35:32.555Z,38.3232
2023-05-22T16:36:34.102Z,37.5264
2023-05-22T16:37:35.587Z,37.3161
2023-05-22T16:38:37.344Z,38.2137
2023-05-22T16:39:39.110Z,38.5542
2023-05-22T16:40:40.941Z,38.7917
2023-05-22T17:02:05.143Z,37.7425
2023-05-22T17:03:07.398Z,36.2372
2023-05-22T17:04:09.127Z,38.1465
2023-05-22T17:05:09.702Z,38.7469
2023-05-22T17:06:11.852Z,39.2645
2023-05-22T17:07:12.165Z,39.5733
2023-05-22T17:08:14.061Z,40.7386
2023-05-22T17:09:16.144Z,40.2000
2023-05-22T17:10:16.577Z,38.1538
2023-05-22T17:14:22.353Z,38.0031
2023-05-22T17:15:22.869Z,38.0288
2023-05-22T17:16:24.860Z,39.3811
2023-05-22T17:17:26.543Z,38.5655
2023-05-22T17:18:28.390Z,38.4296
2023-05-22T17:19:29.229Z,40.4063
2023-05-22T17:20:31.082Z,39.9501
2023-05-22T17:21:33.406Z,40.9967
2023-05-22T17:22:34.266Z,40.8139
2023-05-22T17:23:34.987Z,40.7337
2023-05-22T17:24:35.680Z,42.1572
2023-05-22T17:25:38.001Z,41.2655
2023-05-22T17:26:37.855Z,40.6000
2023-05-22T17:27:37.987Z,42.3805
2023-05-22T17:28:38.056Z,40.2329
2023-05-22T17:29:39.967Z,41.0973
2023-05-22T17:30:40.119Z,40.3614
2023-05-22T17:43:57.514Z,49.4282
2023-05-22T17:44:57.714Z,50.2516
2023-05-22T17:45:58.832Z,52.0928
2023-05-22T17:46:59.552Z,51.5482
2023-05-22T17:47:59.817Z,51.4162
2023-05-22T17:49:01.883Z,51.1211
2023-05-22T17:50:04.057Z,51.5551
2023-05-22T17:51:04.408Z,51.6710
2023-05-22T17:52:05.249Z,53.1779
2023-05-22T17:53:06.962Z,53.2924
2023-05-22T17:54:08.722Z,53.0299
2023-05-22T17:55:10.390Z,54.1831
2023-05-22T17:56:12.629Z,53.6036
2023-05-22T17:57:14.193Z,54.0286
2023-05-22T17:58:14.589Z,55.2026
2023-05-22T17:59:16.453Z,55.7013
2023-05-22T18:00:18.224Z,55.2108
2023-05-22T18:01:19.659Z,55.7493
2023-05-22T18:02:21.119Z,56.7591
2023-05-22T18:03:21.979Z,54.9633
2023-05-22T18:04:21.809Z,55.4908
2023-05-22T18:05:22.951Z,60.9281
2023-05-22T18:06:24.774Z,60.8610
2023-05-22T18:07:25.987Z,57.4984
2023-05-22T18:08:27.405Z,56.9568
2023-05-22T18:09:28.738Z,61.2909
2023-05-22T18:10:29.954Z,58.4223
2023-05-22T18:11:30.961Z,58.7484
2023-05-22T18:12:32.762Z,57.8568
2023-05-22T18:13:33.928Z,61.7245
2023-05-22T18:14:35.462Z,59.8522
2023-05-22T18:15:36.464Z,59.6332
2023-05-22T18:16:36.963Z,58.8773
2023-05-22T18:17:38.299Z,58.4111
2023-05-22T18:18:39.470Z,58.4594
2023-05-22T18:19:40.081Z,58.6812
2023-05-22T18:20:41.934Z,60.2839
2023-05-22T18:24:46.508Z,65.4712
2023-05-22T18:25:57.537Z,63.7549
2023-05-22T18:30:20.813Z,66.4953
2023-05-22T18:31:23.771Z,66.1818
2023-05-22T18:32:23.338Z,68.2361
2023-05-22T18:33:24.775Z,67.3338
2023-05-22T18:34:26.066Z,65.2885
2023-05-22T18:35:27.413Z,63.1334
2023-05-22T18:36:27.788Z,65.6479
2023-05-22T18:42:33.821Z,65.3071
2023-05-22T18:43:35.504Z,66.7274
2023-05-22T18:44:36.912Z,68.4833
2023-05-22T18:45:38.623Z,69.6480
2023-05-22T18:46:40.922Z,70.5879
2023-05-22T18:55:51.214Z,67.7578
2023-05-22T18:56:51.189Z,66.9131
2023-05-22T18:58:51.997Z,69.5235
2023-05-22T18:59:53.179Z,71.7544
2023-05-22T19:00:54.745Z,69.5714
2023-05-22T19:01:57.178Z,71.6850
2023-05-22T19:23:19.722Z,76.3576
2023-05-22T19:26:22.831Z,77.3463
2023-05-22T19:27:23.827Z,78.1274
2023-05-22T19:28:24.882Z,77.7606
2023-05-22T19:29:26.506Z,78.4548
2023-05-22T19:30:27.588Z,78.0003
2023-05-22T19:31:28.870Z,78.4309
2023-05-22T19:32:29.644Z,79.7124
2023-05-22T19:33:30.765Z,80.2488
2023-05-22T19:34:31.900Z,80.1588
2023-05-22T19:35:33.238Z,80.6397
2023-05-22T19:36:34.870Z,80.9417
2023-05-22T19:37:39.714Z,80.7607
2023-05-22T19:40:08.711Z,81.1818
2023-05-22T19:47:19.020Z,83.1014
2023-05-22T19:48:18.881Z,83.0377
2023-05-22T20:01:35.433Z,83.3992
2023-05-22T20:03:38.079Z,83.9346
2023-05-22T20:10:45.854Z,85.8016
2023-05-22T20:11:46.926Z,84.8682
2023-05-22T20:18:54.592Z,83.9673
2023-05-22T20:20:56.127Z,84.9210
2023-05-22T20:21:58.133Z,85.9367
2023-05-22T20:22:59.620Z,85.7040
2023-05-22T20:24:02.171Z,86.1176
2023-05-22T20:25:04.032Z,85.2041
2023-05-22T20:34:13.078Z,84.1007
2023-05-22T20:35:15.221Z,84.6955
2023-05-22T20:38:17.382Z,83.8045
2023-05-22T20:39:19.041Z,84.0057
2023-05-22T20:40:20.038Z,84.8184
2023-05-22T20:41:21.306Z,84.6178
2023-05-22T20:42:23.286Z,83.9495
2023-05-22T20:43:24.768Z,84.0873
2023-05-22T20:56:41.827Z,84.7097
2023-05-22T20:57:43.723Z,84.4455
2023-05-22T20:58:45.680Z,85.0392
2023-05-22T20:59:46.811Z,85.6950
2023-05-22T21:00:48.326Z,85.9076
2023-05-22T21:01:49.458Z,85.0283
2023-05-22T21:02:50.736Z,85.0322
2023-05-22T21:03:52.024Z,86.0085
2023-05-22T21:04:53.483Z,86.6771
2023-05-22T21:05:54.590Z,86.8390
2023-05-22T21:06:55.355Z,86.3105
2023-05-22T21:07:56.509Z,86.4007
2023-05-22T21:08:57.855Z,87.0317
2023-05-22T21:09:59.600Z,87.4751
2023-05-22T21:11:00.271Z,87.8445
2023-05-22T21:12:01.500Z,88.1547
2023-05-22T21:13:01.889Z,88.7095
2023-05-22T21:14:03.010Z,89.5612
2023-05-22T21:15:03.536Z,89.8793
2023-05-22T21:16:04.653Z,90.2744
2023-05-22T21:17:08.426Z,91.2347
2023-05-22T21:25:16.288Z,90.4856
2023-05-22T21:26:17.758Z,89.6707
2023-05-22T21:27:19.614Z,89.4704
2023-05-22T21:28:20.548Z,90.0147
2023-05-22T21:30:23.160Z,90.5636
2023-05-22T21:31:24.199Z,90.6837
2023-05-22T21:32:25.207Z,89.7562
2023-05-22T21:33:26.419Z,88.5886
2023-05-22T21:34:27.375Z,87.9498
2023-05-22T21:38:32.836Z,89.9146
2023-05-22T21:39:35.096Z,90.1700
2023-05-22T21:40:34.887Z,89.8533
2023-05-22T21:42:46.683Z,89.8592
2023-05-22T21:47:11.622Z,89.6759
2023-05-22T21:48:13.307Z,89.3601
2023-05-22T21:57:25.590Z,88.4912
2023-05-22T21:58:27.467Z,88.7318
2023-05-22T21:59:28.642Z,88.6920
2023-05-22T22:00:29.716Z,88.3115
2023-05-22T22:01:31.563Z,87.8660
2023-05-22T22:02:33.075Z,87.3927
2023-05-22T22:04:35.618Z,86.7681
2023-05-22T22:05:37.732Z,86.5829
2023-05-22T22:06:39.349Z,86.7353